createdAt,value
2019-04-10T00:01:42.524Z,6.47
2019-04-10T00:04:14.655Z,6.13
2019-04-10T00:06:44.304Z,6.35
2019-04-10T00:09:14.800Z,6.35
2019-04-10T00:11:45.136Z,6.31
2019-04-10T00:14:15.008Z,6.13
2019-04-10T00:16:45.158Z,6.23
2019-04-10T00:19:15.037Z,6.32
2019-04-10T00:21:45.225Z,6.28
2019-04-10T00:24:15.545Z,6.29
2019-04-10T00:26:45.914Z,6.26
2019-04-10T00:29:16.188Z,6.18
2019-04-10T00:31:49.096Z,6.13
2019-04-10T00:34:18.885Z,6.19
2019-04-10T00:36:49.069Z,6.14
2019-04-10T00:39:18.704Z,6.03
2019-04-10T00:41:48.399Z,6.10
2019-04-10T00:44:17.913Z,6.11
2019-04-10T00:46:48.591Z,6.08
2019-04-10T00:49:19.552Z,6.06
2019-04-10T00:51:49.993Z,6.04
2019-04-10T00:54:20.320Z,6.07
2019-04-10T00:56:50.621Z,6.10
2019-04-10T00:59:20.299Z,6.06
2019-04-10T01:01:50.028Z,5.96
2019-04-10T01:04:20.348Z,5.96
2019-04-10T01:06:52.515Z,5.90
2019-04-10T01:09:22.258Z,5.79
2019-04-10T01:11:52.143Z,5.80
2019-04-10T01:14:21.653Z,5.91
2019-04-10T01:16:51.505Z,5.98
2019-04-10T01:19:21.303Z,5.76
2019-04-10T01:21:50.830Z,5.86
2019-04-10T01:24:20.361Z,5.87
2019-04-10T01:26:49.948Z,5.80
2019-04-10T01:29:19.724Z,5.81
2019-04-10T01:31:51.133Z,5.61
2019-04-10T01:34:21.087Z,5.65
2019-04-10T01:36:51.007Z,5.68
2019-04-10T01:39:28.635Z,5.60
2019-04-10T01:41:58.502Z,5.54
2019-04-10T01:44:28.896Z,5.45
2019-04-10T01:46:59.828Z,5.43
2019-04-10T01:49:29.493Z,5.12
2019-04-10T01:51:59.493Z,5.07
2019-04-10T01:54:29.379Z,4.86
2019-04-10T01:56:59.722Z,5.04
2019-04-10T01:59:32.128Z,5.20
2019-04-10T02:02:07.202Z,4.97
2019-04-10T02:04:37.037Z,4.99
2019-04-10T02:07:08.176Z,5.19
2019-04-10T02:09:37.767Z,5.40
2019-04-10T02:12:07.346Z,5.18
2019-04-10T02:14:36.879Z,5.35
2019-04-10T02:17:06.557Z,5.34
2019-04-10T02:19:36.464Z,5.38
2019-04-10T02:22:06.503Z,5.33
2019-04-10T02:24:37.201Z,5.27
2019-04-10T02:27:07.796Z,5.15
2019-04-10T02:29:37.833Z,5.17
2019-04-10T02:32:08.046Z,5.19
2019-04-10T02:34:39.255Z,5.29
2019-04-10T02:37:10.848Z,5.36
2019-04-10T02:39:47.677Z,5.49
2019-04-10T02:42:18.657Z,5.75
2019-04-10T02:44:50.418Z,5.70
2019-04-10T02:47:21.120Z,5.70
2019-04-10T02:49:52.115Z,5.53
2019-04-10T02:52:22.619Z,5.69
2019-04-10T02:54:53.735Z,5.46
2019-04-10T02:57:25.315Z,5.63
2019-04-10T02:59:55.940Z,5.44
2019-04-10T03:02:28.424Z,5.45
2019-04-10T03:04:59.372Z,5.28
2019-04-10T03:07:29.156Z,5.31
2019-04-10T03:10:08.895Z,5.23
2019-04-10T03:12:32.330Z,5.24
2019-04-10T03:15:05.565Z,5.18
2019-04-10T03:17:36.628Z,5.12
2019-04-10T03:20:07.958Z,5.10
2019-04-10T03:22:37.776Z,4.80
2019-04-10T03:25:08.897Z,4.94
2019-04-10T03:27:38.764Z,4.95
2019-04-10T03:30:12.114Z,4.81
2019-04-10T03:32:44.474Z,4.96
2019-04-10T03:35:16.737Z,4.89
2019-04-10T03:37:46.663Z,4.88
2019-04-10T03:40:17.407Z,4.98
2019-04-10T03:42:47.476Z,4.71
2019-04-10T03:45:17.904Z,4.71
2019-04-10T03:47:47.547Z,4.39
2019-04-10T03:50:18.209Z,4.41
2019-04-10T03:52:48.217Z,4.48
2019-04-10T03:55:18.815Z,4.61
2019-04-10T03:57:49.106Z,4.63
2019-04-10T04:00:19.714Z,4.58
2019-04-10T04:02:50.517Z,4.61
2019-04-10T04:05:22.404Z,4.68
2019-04-10T04:07:54.988Z,4.51
2019-04-10T04:10:24.785Z,4.61
2019-04-10T04:12:55.109Z,4.63
2019-04-10T04:15:24.776Z,4.55
2019-04-10T04:17:54.768Z,4.60
2019-04-10T04:20:26.623Z,4.63
2019-04-10T04:22:57.078Z,4.57
2019-04-10T04:25:26.662Z,4.53
2019-04-10T04:27:56.350Z,4.49
2019-04-10T04:30:26.153Z,4.46
2019-04-10T04:32:56.059Z,4.47
2019-04-10T04:35:25.775Z,4.51
2019-04-10T04:37:56.189Z,4.54
2019-04-10T04:40:25.945Z,4.59
2019-04-10T04:42:55.811Z,4.59
2019-04-10T04:45:25.666Z,4.56
2019-04-10T04:47:55.647Z,4.68
2019-04-10T04:50:25.320Z,4.78
2019-04-10T04:52:54.827Z,4.74
2019-04-10T04:55:24.398Z,4.84
2019-04-10T04:57:54.015Z,4.81
2019-04-10T05:00:23.727Z,4.68
2019-04-10T05:02:53.671Z,4.60
2019-04-10T05:05:23.661Z,4.74
2019-04-10T05:07:59.367Z,4.67
2019-04-10T05:10:25.204Z,4.89
2019-04-10T05:12:59.944Z,4.78
2019-04-10T05:15:31.116Z,4.75
2019-04-10T05:18:01.889Z,4.79
2019-04-10T05:20:41.278Z,4.81
2019-04-10T05:23:04.115Z,5.02
2019-04-10T05:25:34.507Z,4.83
2019-04-10T05:28:05.836Z,5.16
2019-04-10T05:30:35.738Z,5.29
2019-04-10T05:33:06.287Z,5.31
2019-04-10T05:35:37.291Z,5.37
2019-04-10T05:38:07.947Z,5.28
2019-04-10T05:40:37.737Z,5.37
2019-04-10T05:43:07.387Z,5.35
2019-04-10T05:45:37.813Z,5.56
2019-04-10T05:48:07.494Z,5.84
2019-04-10T05:50:37.836Z,5.89
2019-04-10T05:53:07.832Z,5.77
2019-04-10T05:55:37.325Z,5.80
2019-04-10T05:58:07.752Z,5.93
2019-04-10T06:00:37.290Z,5.88
2019-04-10T06:03:07.103Z,5.86
2019-04-10T06:05:40.934Z,6.14
2019-04-10T06:08:10.452Z,6.29
2019-04-10T06:10:39.976Z,6.43
2019-04-10T06:13:10.884Z,6.42
2019-04-10T06:15:41.306Z,6.23
2019-04-10T06:18:13.924Z,6.39
2019-04-10T06:20:45.276Z,6.26
2019-04-10T06:23:15.198Z,6.76
2019-04-10T06:25:45.766Z,6.85
2019-04-10T06:28:16.989Z,7.08
2019-04-10T06:30:46.668Z,7.09
2019-04-10T06:33:16.208Z,7.24
2019-04-10T06:35:46.882Z,7.42
2019-04-10T06:38:16.924Z,7.44
2019-04-10T06:40:46.738Z,7.50
2019-04-10T06:43:16.940Z,7.67
2019-04-10T06:45:46.783Z,7.94
2019-04-10T06:48:17.192Z,7.93
2019-04-10T06:50:48.718Z,7.94
2019-04-10T06:53:18.691Z,7.97
2019-04-10T06:55:48.877Z,7.86
2019-04-10T06:58:18.645Z,8.10
2019-04-10T07:00:52.927Z,8.40
2019-04-10T07:03:19.583Z,8.41
2019-04-10T07:06:03.272Z,8.34
2019-04-10T07:08:23.933Z,8.59
2019-04-10T07:11:01.382Z,8.82
2019-04-10T07:13:26.011Z,8.86
2019-04-10T07:15:58.159Z,8.58
2019-04-10T07:18:27.284Z,8.91
2019-04-10T07:21:01.080Z,9.10
2019-04-10T07:23:30.800Z,9.22
2019-04-10T07:26:01.730Z,9.67
2019-04-10T07:28:33.549Z,9.80
2019-04-10T07:31:07.221Z,10.14
2019-04-10T07:33:35.187Z,10.20
2019-04-10T07:36:08.953Z,10.50
2019-04-10T07:38:37.102Z,11.02
2019-04-10T07:41:13.692Z,11.25
2019-04-10T07:43:39.065Z,11.43
2019-04-10T07:46:08.726Z,11.85
2019-04-10T07:48:38.256Z,12.01
2019-04-10T07:51:09.009Z,12.38
2019-04-10T07:53:39.456Z,12.87
2019-04-10T07:56:14.873Z,12.81
2019-04-10T07:58:43.970Z,12.53
2019-04-10T08:01:14.095Z,13.40
2019-04-10T08:03:43.919Z,13.97
2019-04-10T08:06:13.564Z,14.26
2019-04-10T08:08:43.083Z,15.26
2019-04-10T08:11:13.307Z,15.98
2019-04-10T08:13:42.863Z,16.27
2019-04-10T08:16:12.370Z,15.71
2019-04-10T08:18:41.874Z,15.52
2019-04-10T08:21:15.526Z,16.18
2019-04-10T08:23:46.434Z,16.67
2019-04-10T08:26:16.323Z,16.94
2019-04-10T08:28:46.032Z,18.30
2019-04-10T08:31:15.645Z,17.30
2019-04-10T08:33:46.154Z,17.70
2019-04-10T08:36:16.747Z,17.68
2019-04-10T08:38:46.695Z,18.05
2019-04-10T08:41:17.165Z,17.98
2019-04-10T08:43:48.107Z,17.58
2019-04-10T08:46:18.295Z,17.43
2019-04-10T08:48:48.013Z,18.43
2019-04-10T08:51:21.440Z,18.91
2019-04-10T08:53:54.111Z,18.34
2019-04-10T08:56:23.022Z,18.99
2019-04-10T08:58:53.120Z,18.59
2019-04-10T09:01:25.143Z,18.28
2019-04-10T09:03:57.374Z,18.61
2019-04-10T09:06:29.442Z,19.67
2019-04-10T09:08:59.451Z,20.60
2019-04-10T09:11:30.159Z,21.65
2019-04-10T09:14:01.054Z,21.39
2019-04-10T09:16:31.064Z,21.89
2019-04-10T09:19:01.382Z,22.20
2019-04-10T09:21:35.155Z,22.47
2019-04-10T09:24:05.283Z,22.79
2019-04-10T09:26:36.105Z,23.52
2019-04-10T09:29:08.707Z,21.90
2019-04-10T09:31:39.930Z,22.65
2019-04-10T09:34:10.098Z,23.32
2019-04-10T09:36:40.373Z,23.95
2019-04-10T09:39:11.506Z,22.60
2019-04-10T09:41:41.871Z,22.13
2019-04-10T09:44:12.377Z,22.70
2019-04-10T09:46:42.861Z,23.88
2019-04-10T09:49:12.989Z,23.97
2019-04-10T09:51:43.504Z,24.31
2019-04-10T09:54:13.538Z,24.76
2019-04-10T09:56:44.204Z,25.49
2019-04-10T09:59:14.264Z,26.18
2019-04-10T10:01:44.500Z,26.76
2019-04-10T10:04:15.345Z,26.98
2019-04-10T10:06:49.363Z,27.18
2019-04-10T10:09:19.672Z,26.15
2019-04-10T10:11:49.691Z,26.05
2019-04-10T10:14:19.309Z,26.86
2019-04-10T10:16:50.469Z,27.89
2019-04-10T10:19:21.649Z,27.61
2019-04-10T10:21:52.562Z,26.91
2019-04-10T10:24:22.679Z,27.38
2019-04-10T10:26:53.471Z,26.95
2019-04-10T10:29:23.809Z,27.28
2019-04-10T10:31:54.004Z,27.48
2019-04-10T10:34:26.042Z,27.06
2019-04-10T10:36:57.880Z,26.80
2019-04-10T10:39:30.685Z,26.50
2019-04-10T10:41:59.593Z,26.65
2019-04-10T10:44:30.135Z,26.68
2019-04-10T10:47:00.497Z,27.18
2019-04-10T10:49:30.661Z,26.91
2019-04-10T10:52:03.544Z,26.04
2019-04-10T10:54:34.692Z,24.36
2019-04-10T10:57:05.086Z,24.28
2019-04-10T10:59:35.567Z,25.54
2019-04-10T11:02:06.428Z,24.46
2019-04-10T11:04:36.218Z,25.75
2019-04-10T11:07:06.963Z,26.90
2019-04-10T11:09:40.117Z,27.33
2019-04-10T11:12:10.141Z,27.70
2019-04-10T11:14:39.681Z,28.28
2019-04-10T11:17:09.414Z,28.63
2019-04-10T11:19:39.494Z,28.10
2019-04-10T11:22:14.304Z,25.62
2019-04-10T11:24:44.532Z,25.06
2019-04-10T11:27:14.377Z,25.52
2019-04-10T11:29:45.446Z,25.81
2019-04-10T11:32:36.628Z,26.57
2019-04-10T11:35:08.732Z,26.10
2019-04-10T11:37:44.343Z,26.49
2019-04-10T11:40:12.201Z,26.45
2019-04-10T11:42:42.965Z,26.61
2019-04-10T11:45:18.163Z,26.94
2019-04-10T11:47:48.242Z,27.83
2019-04-10T11:50:18.905Z,27.66
2019-04-10T11:52:53.190Z,27.83
2019-04-10T11:55:22.012Z,25.65
2019-04-10T11:57:51.757Z,26.20
2019-04-10T12:00:47.764Z,26.15
2019-04-10T12:03:12.968Z,26.66
2019-04-10T12:05:46.110Z,25.90
2019-04-10T12:08:40.182Z,26.38
2019-04-10T12:13:18.380Z,27.33
2019-04-10T12:15:48.930Z,27.64
2019-04-10T12:18:18.806Z,27.23
2019-04-10T12:20:49.258Z,26.27
2019-04-10T12:23:19.233Z,27.43
2019-04-10T12:25:49.391Z,27.02
2019-04-10T12:28:20.121Z,27.22
2019-04-10T12:30:51.212Z,26.92
2019-04-10T12:33:21.364Z,27.22
2019-04-10T12:35:51.053Z,27.21
2019-04-10T12:38:20.788Z,27.20
2019-04-10T12:40:50.931Z,27.70
2019-04-10T12:43:20.947Z,27.41
2019-04-10T12:45:50.862Z,26.87
2019-04-10T12:48:20.822Z,25.17
2019-04-10T12:50:50.891Z,23.20
2019-04-10T12:53:21.251Z,22.77
2019-04-10T12:55:53.592Z,23.31
2019-04-10T12:58:23.676Z,23.49
2019-04-10T13:00:53.200Z,23.30
2019-04-10T13:03:23.098Z,22.12
2019-04-10T13:05:53.601Z,22.24
2019-04-10T13:08:34.981Z,23.38
2019-04-10T13:10:56.114Z,23.90
2019-04-10T13:13:26.168Z,24.18
2019-04-10T13:15:56.784Z,22.91
2019-04-10T13:18:26.345Z,21.56
2019-04-10T13:20:55.902Z,20.47
2019-04-10T13:23:25.648Z,19.60
2019-04-10T13:26:01.014Z,19.39
2019-04-10T13:28:29.762Z,20.56
2019-04-10T13:30:59.572Z,21.17
2019-04-10T13:33:29.245Z,21.41
2019-04-10T13:35:59.543Z,21.82
2019-04-10T13:38:33.505Z,21.50
2019-04-10T13:41:03.965Z,21.20
2019-04-10T13:43:34.020Z,19.87
2019-04-10T13:46:04.592Z,18.87
2019-04-10T13:48:35.504Z,19.25
2019-04-10T13:51:05.419Z,18.95
2019-04-10T13:53:34.995Z,18.82
2019-04-10T13:56:06.612Z,19.23
2019-04-10T13:58:36.342Z,19.25
2019-04-10T14:01:09.337Z,19.36
2019-04-10T14:03:41.523Z,19.82
2019-04-10T14:06:11.592Z,20.30
2019-04-10T14:09:01.787Z,20.03
2019-04-10T14:11:13.260Z,19.75
2019-04-10T14:13:46.255Z,19.98
2019-04-10T14:16:16.944Z,19.70
2019-04-10T14:18:46.930Z,18.90
2019-04-10T14:21:17.302Z,18.43
2019-04-10T14:23:47.258Z,19.10
2019-04-10T14:26:42.128Z,19.27
2019-04-10T14:29:05.201Z,18.74
2019-04-10T14:31:36.776Z,18.39
2019-04-10T14:34:06.664Z,17.55
2019-04-10T14:36:36.676Z,17.11
2019-04-10T14:39:18.411Z,17.02
2019-04-10T14:41:46.411Z,17.17
2019-04-10T14:44:16.255Z,16.51
2019-04-10T14:46:49.646Z,16.35
2019-04-10T14:49:19.514Z,16.51
2019-04-10T14:51:49.134Z,16.66
2019-04-10T14:54:19.621Z,16.95
2019-04-10T14:56:50.415Z,16.90
2019-04-10T14:59:20.312Z,17.30
2019-04-10T15:01:51.260Z,17.48
2019-04-10T15:04:21.403Z,17.18
2019-04-10T15:06:51.162Z,17.04
2019-04-10T15:09:25.951Z,16.61
2019-04-10T15:11:53.872Z,16.42
2019-04-10T15:14:23.824Z,16.72
2019-04-10T15:16:59.964Z,16.87
2019-04-10T15:19:26.886Z,16.66
2019-04-10T15:21:56.758Z,16.21
2019-04-10T15:24:26.396Z,15.92
2019-04-10T15:26:57.092Z,15.81
2019-04-10T15:29:26.762Z,15.96
2019-04-10T15:31:57.625Z,15.65
2019-04-10T15:34:28.257Z,15.22
2019-04-10T15:36:58.523Z,15.14
2019-04-10T15:39:33.913Z,14.89
2019-04-10T15:41:59.711Z,14.76
2019-04-10T15:44:30.098Z,14.71
2019-04-10T15:47:12.600Z,14.74
2019-04-10T15:49:32.435Z,14.48
2019-04-10T15:52:02.210Z,14.57
2019-04-10T15:54:32.149Z,14.32
2019-04-10T15:57:02.674Z,14.40
2019-04-10T15:59:32.556Z,14.36
2019-04-10T16:02:05.719Z,14.34
2019-04-10T16:04:35.867Z,14.31
2019-04-10T16:07:06.348Z,14.22
2019-04-10T16:09:45.469Z,14.46
2019-04-10T16:12:11.711Z,14.51
2019-04-10T16:14:41.239Z,14.39
2019-04-10T16:17:29.391Z,14.20
2019-04-10T16:19:59.781Z,14.19
2019-04-10T16:22:35.263Z,13.72
2019-04-10T16:25:11.635Z,13.74
2019-04-10T16:27:41.588Z,13.67
2019-04-10T16:30:14.448Z,13.71
2019-04-10T16:32:44.783Z,13.89
2019-04-10T16:35:15.730Z,13.75
2019-04-10T16:37:45.886Z,13.63
2019-04-10T16:40:18.543Z,13.37
2019-04-10T16:42:48.784Z,13.40
2019-04-10T16:45:18.647Z,13.24
2019-04-10T16:47:50.926Z,13.37
2019-04-10T16:50:21.563Z,13.24
2019-04-10T16:52:53.570Z,12.97
2019-04-10T16:55:24.796Z,12.64
2019-04-10T16:57:55.686Z,12.65
2019-04-10T17:00:26.922Z,12.34
2019-04-10T17:02:57.488Z,12.20
2019-04-10T17:05:28.207Z,12.51
2019-04-10T17:07:59.315Z,12.33
2019-04-10T17:10:30.328Z,12.40
2019-04-10T17:13:00.296Z,12.21
2019-04-10T17:15:30.247Z,12.06
2019-04-10T17:18:00.960Z,12.18
2019-04-10T17:20:31.042Z,12.18
2019-04-10T17:23:02.440Z,12.24
2019-04-10T17:25:33.989Z,12.18
2019-04-10T17:28:04.495Z,11.89
2019-04-10T17:30:34.216Z,11.85
2019-04-10T17:33:04.830Z,11.63
2019-04-10T17:35:37.986Z,11.65
2019-04-10T17:38:07.593Z,11.67
2019-04-10T17:40:45.828Z,11.67
2019-04-10T17:43:08.749Z,11.66
2019-04-10T17:45:38.812Z,11.76
2019-04-10T17:48:09.512Z,11.71
2019-04-10T17:50:41.679Z,11.60
2019-04-10T17:53:11.631Z,11.66
2019-04-10T17:55:44.046Z,11.48
2019-04-10T17:58:13.923Z,11.57
2019-04-10T18:00:45.655Z,11.65
2019-04-10T18:03:18.401Z,11.45
2019-04-10T18:05:46.878Z,11.41
2019-04-10T18:08:16.780Z,11.38
2019-04-10T18:10:52.638Z,11.16
2019-04-10T18:13:20.919Z,10.83
2019-04-10T18:15:50.659Z,11.00
2019-04-10T18:18:20.242Z,10.71
2019-04-10T18:20:51.040Z,10.73
2019-04-10T18:23:20.633Z,10.35
2019-04-10T18:25:50.226Z,10.58
2019-04-10T18:28:19.804Z,10.32
2019-04-10T18:30:49.865Z,10.29
2019-04-10T18:33:24.562Z,10.32
2019-04-10T18:35:55.346Z,10.49
2019-04-10T18:38:25.802Z,10.35
2019-04-10T18:41:01.995Z,10.31
2019-04-10T18:43:28.317Z,10.42
2019-04-10T18:46:08.824Z,10.47
2019-04-10T18:48:30.401Z,10.35
2019-04-10T18:51:01.475Z,10.15
2019-04-10T18:53:31.180Z,10.17
2019-04-10T18:56:00.853Z,10.22
2019-04-10T18:58:32.002Z,10.15
2019-04-10T19:01:03.314Z,10.28
2019-04-10T19:03:46.270Z,10.26
2019-04-10T19:06:12.056Z,10.43
2019-04-10T19:08:42.246Z,10.41
2019-04-10T19:11:20.948Z,10.08
2019-04-10T19:13:43.122Z,10.19
2019-04-10T19:16:13.723Z,10.24
2019-04-10T19:18:47.892Z,10.23
2019-04-10T19:21:17.939Z,9.95
2019-04-10T19:23:47.913Z,10.13
2019-04-10T19:26:19.178Z,10.08
2019-04-10T19:28:48.871Z,10.06
2019-04-10T19:31:23.019Z,9.93
2019-04-10T19:33:51.782Z,9.60
2019-04-10T19:36:21.362Z,9.72
2019-04-10T19:38:51.761Z,9.86
2019-04-10T19:41:28.049Z,9.64
2019-04-10T19:43:52.749Z,9.67
2019-04-10T19:46:23.726Z,9.79
2019-04-10T19:48:53.988Z,9.71
2019-04-10T19:51:24.000Z,9.65
2019-04-10T19:53:53.532Z,9.33
2019-04-10T19:56:23.154Z,9.47
2019-04-10T19:58:52.700Z,9.19
2019-04-10T20:01:24.532Z,9.26
2019-04-10T20:03:54.235Z,9.19
2019-04-10T20:06:25.224Z,9.22
2019-04-10T20:08:55.787Z,9.17
2019-04-10T20:11:33.898Z,9.12
2019-04-10T20:13:59.991Z,9.10
2019-04-10T20:16:28.533Z,9.04
2019-04-10T20:18:59.197Z,9.00
2019-04-10T20:21:30.012Z,9.04
2019-04-10T20:24:00.595Z,9.16
2019-04-10T20:26:31.500Z,9.15
2019-04-10T20:29:02.340Z,9.14
2019-04-10T20:31:33.885Z,9.06
2019-04-10T20:34:03.667Z,8.80
2019-04-10T20:36:33.612Z,8.86
2019-04-10T20:39:03.802Z,8.90
2019-04-10T20:41:46.082Z,8.85
2019-04-10T20:44:07.206Z,8.96
2019-04-10T20:46:38.217Z,8.92
2019-04-10T20:49:08.523Z,8.89
2019-04-10T20:51:38.502Z,9.02
2019-04-10T20:54:08.626Z,8.94
2019-04-10T20:56:40.951Z,8.73
2019-04-10T20:59:10.075Z,8.81
2019-04-10T21:01:39.613Z,8.90
2019-04-10T21:04:09.473Z,8.85
2019-04-10T21:06:41.827Z,8.72
2019-04-10T21:09:11.729Z,8.78
2019-04-10T21:11:41.886Z,8.84
2019-04-10T21:14:12.609Z,8.80
2019-04-10T21:16:44.212Z,8.91
2019-04-10T21:19:13.910Z,8.69
2019-04-10T21:21:43.591Z,8.80
2019-04-10T21:24:13.423Z,8.78
2019-04-10T21:26:44.875Z,8.93
2019-04-10T21:29:16.363Z,8.91
2019-04-10T21:31:59.717Z,8.64
2019-04-10T21:34:31.049Z,8.67
2019-04-10T21:37:01.677Z,8.66
2019-04-10T21:39:31.838Z,8.76
2019-04-10T21:42:11.980Z,8.67
2019-04-10T21:44:33.215Z,8.66
2019-04-10T21:47:05.420Z,8.77
2019-04-10T21:49:36.008Z,8.62
2019-04-10T21:52:05.892Z,8.52
2019-04-10T21:54:35.440Z,8.71
2019-04-10T21:57:05.417Z,8.48
2019-04-10T21:59:35.048Z,8.60
2019-04-10T22:02:04.945Z,8.61
2019-04-10T22:04:35.050Z,8.71
2019-04-10T22:07:23.701Z,8.73
2019-04-10T22:10:12.018Z,8.79
2019-04-10T22:12:47.132Z,8.56
2019-04-10T22:15:15.254Z,8.59
2019-04-10T22:17:44.830Z,8.51
2019-04-10T22:20:15.165Z,8.72
2019-04-10T22:22:45.061Z,8.67
2019-04-10T22:25:15.171Z,8.86
2019-04-10T22:27:46.351Z,8.56
2019-04-10T22:30:16.912Z,8.54
2019-04-10T22:32:47.136Z,8.54
2019-04-10T22:35:17.477Z,8.51
2019-04-10T22:37:48.248Z,8.60
2019-04-10T22:40:17.851Z,8.59
2019-04-10T22:42:48.637Z,8.67
2019-04-10T22:45:29.230Z,8.68
2019-04-10T22:48:00.748Z,8.77
2019-04-10T22:50:31.174Z,8.64
2019-04-10T22:53:01.374Z,8.70
2019-04-10T22:55:31.797Z,8.80
2019-04-10T22:58:02.555Z,8.56
2019-04-10T23:00:33.001Z,8.66
2019-04-10T23:03:03.438Z,8.82
2019-04-10T23:05:34.318Z,8.79
2019-04-10T23:08:04.154Z,8.62
2019-04-10T23:10:33.821Z,8.85
2019-04-10T23:13:05.580Z,8.92
2019-04-10T23:15:35.655Z,8.89
2019-04-10T23:18:07.462Z,8.82
2019-04-10T23:20:37.341Z,8.70
2019-04-10T23:23:06.936Z,8.75
2019-04-10T23:25:36.584Z,8.72
2019-04-10T23:28:07.325Z,8.76
2019-04-10T23:30:37.316Z,8.73
2019-04-10T23:33:07.947Z,8.55
2019-04-10T23:35:37.974Z,8.69
2019-04-10T23:38:09.152Z,8.71
2019-04-10T23:40:38.987Z,8.86
2019-04-10T23:43:13.519Z,8.81
2019-04-10T23:45:39.836Z,8.77
2019-04-10T23:48:09.380Z,8.77
2019-04-10T23:50:38.902Z,8.72
2019-04-10T23:53:08.668Z,8.81
2019-04-10T23:55:38.542Z,8.75
2019-04-10T23:58:08.056Z,8.64
